sensor_id;sensor_type;location;lat;lon;timestamp;pressure;altitude;pressure_sealevel;temperature;humidity
57232;BME280;43488;46.934;8.276;2023-06-22T00:00:11;96427.94;;;21.59;95.57
57232;BME280;43488;46.934;8.276;2023-06-22T00:02:40;96431.78;;;21.43;99.16
57232;BME280;43488;46.934;8.276;2023-06-22T00:05:07;96430.44;;;21.45;98.97
57232;BME280;43488;46.934;8.276;2023-06-22T00:07:34;96435.22;;;21.48;98.92
57232;BME280;43488;46.934;8.276;2023-06-22T00:10:02;96435.25;;;21.43;97.46
57232;BME280;43488;46.934;8.276;2023-06-22T00:12:33;96436.88;;;21.39;97.40
57232;BME280;43488;46.934;8.276;2023-06-22T00:15:00;96444.38;;;21.42;97.32
57232;BME280;43488;46.934;8.276;2023-06-22T00:17:27;96444.38;;;21.42;96.70
57232;BME280;43488;46.934;8.276;2023-06-22T00:19:55;96438.53;;;21.30;98.68
57232;BME280;43488;46.934;8.276;2023-06-22T00:22:23;96436.69;;;21.25;100.00
57232;BME280;43488;46.934;8.276;2023-06-22T00:24:56;96437.22;;;21.33;99.41
57232;BME280;43488;46.934;8.276;2023-06-22T00:27:23;96436.66;;;21.36;98.96
57232;BME280;43488;46.934;8.276;2023-06-22T00:29:50;96433.19;;;21.30;98.97
57232;BME280;43488;46.934;8.276;2023-06-22T00:32:18;96436.69;;;21.31;99.11
57232;BME280;43488;46.934;8.276;2023-06-22T00:34:45;96432.94;;;21.26;97.68
57232;BME280;43488;46.934;8.276;2023-06-22T00:37:13;96436.69;;;21.25;95.66
57232;BME280;43488;46.934;8.276;2023-06-22T00:39:40;96429.75;;;21.19;96.79
57232;BME280;43488;46.934;8.276;2023-06-22T00:42:08;96427.13;;;21.14;97.06
57232;BME280;43488;46.934;8.276;2023-06-22T00:44:36;96422.91;;;20.98;98.39
57232;BME280;43488;46.934;8.276;2023-06-22T00:47:04;96412.25;;;20.88;99.90
57232;BME280;43488;46.934;8.276;2023-06-22T00:49:31;96422.66;;;20.94;99.18
57232;BME280;43488;46.934;8.276;2023-06-22T00:51:58;96429.06;;;20.98;98.91
57232;BME280;43488;46.934;8.276;2023-06-22T00:54:26;96430.44;;;20.91;99.60
57232;BME280;43488;46.934;8.276;2023-06-22T00:56:55;96426.72;;;20.87;99.77
57232;BME280;43488;46.934;8.276;2023-06-22T00:59:24;96428.31;;;20.83;100.00
57232;BME280;43488;46.934;8.276;2023-06-22T01:01:53;96437.47;;;20.77;100.00
57232;BME280;43488;46.934;8.276;2023-06-22T01:04:37;96429.16;;;20.78;100.00
57232;BME280;43488;46.934;8.276;2023-06-22T01:07:39;96439.03;;;20.83;98.84
57232;BME280;43488;46.934;8.276;2023-06-22T01:10:39;96434.50;;;20.73;99.67
57232;BME280;43488;46.934;8.276;2023-06-22T01:14:22;96444.44;;;20.67;100.00
57232;BME280;43488;46.934;8.276;2023-06-22T01:16:34;96446.03;;;20.63;100.00
57232;BME280;43488;46.934;8.276;2023-06-22T01:21:44;96439.38;;;20.56;100.00
57232;BME280;43488;46.934;8.276;2023-06-22T01:24:26;96436.47;;;20.52;100.00
57232;BME280;43488;46.934;8.276;2023-06-22T01:29:43;96440.72;;;20.58;100.00
57232;BME280;43488;46.934;8.276;2023-06-22T01:32:12;96440.97;;;20.62;100.00
57232;BME280;43488;46.934;8.276;2023-06-22T01:34:40;96438.81;;;20.64;100.00
57232;BME280;43488;46.934;8.276;2023-06-22T01:37:08;96432.13;;;20.66;100.00
57232;BME280;43488;46.934;8.276;2023-06-22T01:39:36;96430.28;;;20.67;100.00
57232;BME280;43488;46.934;8.276;2023-06-22T01:42:06;96435.38;;;20.58;100.00
57232;BME280;43488;46.934;8.276;2023-06-22T01:44:34;96437.81;;;20.50;100.00
57232;BME280;43488;46.934;8.276;2023-06-22T01:47:02;96443.41;;;20.48;100.00
57232;BME280;43488;46.934;8.276;2023-06-22T01:49:30;96440.72;;;20.38;100.00
57232;BME280;43488;46.934;8.276;2023-06-22T01:51:58;96443.16;;;20.44;100.00
57232;BME280;43488;46.934;8.276;2023-06-22T01:54:25;96444.75;;;20.51;100.00
57232;BME280;43488;46.934;8.276;2023-06-22T01:56:53;96443.44;;;20.43;100.00
57232;BME280;43488;46.934;8.276;2023-06-22T01:59:34;96446.34;;;20.36;100.00
57232;BME280;43488;46.934;8.276;2023-06-22T02:02:09;96442.09;;;20.45;100.00
57232;BME280;43488;46.934;8.276;2023-06-22T02:04:51;96439.13;;;20.42;100.00
57232;BME280;43488;46.934;8.276;2023-06-22T02:07:22;96437.25;;;20.48;100.00
57232;BME280;43488;46.934;8.276;2023-06-22T02:09:52;96432.47;;;20.50;100.00
57232;BME280;43488;46.934;8.276;2023-06-22T02:12:23;96436.75;;;20.40;100.00
57232;BME280;43488;46.934;8.276;2023-06-22T02:14:52;96442.59;;;20.42;100.00
57232;BME280;43488;46.934;8.276;2023-06-22T02:17:21;96438.34;;;20.36;100.00
57232;BME280;43488;46.934;8.276;2023-06-22T02:19:48;96430.88;;;20.28;100.00
57232;BME280;43488;46.934;8.276;2023-06-22T02:22:16;96437.56;;;20.21;100.00
57232;BME280;43488;46.934;8.276;2023-06-22T02:24:43;96438.91;;;20.23;100.00
57232;BME280;43488;46.934;8.276;2023-06-22T02:27:10;96430.88;;;20.18;100.00
57232;BME280;43488;46.934;8.276;2023-06-22T02:29:37;96426.63;;;20.22;100.00
57232;BME280;43488;46.934;8.276;2023-06-22T02:32:05;96435.97;;;20.25;100.00
57232;BME280;43488;46.934;8.276;2023-06-22T02:34:32;96435.13;;;20.29;100.00
57232;BME280;43488;46.934;8.276;2023-06-22T02:37:01;96435.94;;;20.30;100.00
57232;BME280;43488;46.934;8.276;2023-06-22T02:39:30;96413.78;;;20.24;100.00
57232;BME280;43488;46.934;8.276;2023-06-22T02:41:57;96415.09;;;20.27;100.00
57232;BME280;43488;46.934;8.276;2023-06-22T02:44:24;96411.34;;;20.28;100.00
57232;BME280;43488;46.934;8.276;2023-06-22T02:46:52;96403.38;;;20.12;100.00
57232;BME280;43488;46.934;8.276;2023-06-22T02:49:21;96401.50;;;20.13;100.00
57232;BME280;43488;46.934;8.276;2023-06-22T02:51:48;96413.25;;;20.02;100.00
57232;BME280;43488;46.934;8.276;2023-06-22T02:54:16;96412.75;;;19.89;100.00
57232;BME280;43488;46.934;8.276;2023-06-22T02:56:43;96407.41;;;19.79;100.00
57232;BME280;43488;46.934;8.276;2023-06-22T02:59:11;96405.28;;;19.86;100.00
57232;BME280;43488;46.934;8.276;2023-06-22T03:01:38;96406.59;;;19.84;100.00
57232;BME280;43488;46.934;8.276;2023-06-22T03:04:09;96408.75;;;19.87;100.00
57232;BME280;43488;46.934;8.276;2023-06-22T03:06:36;96411.16;;;19.88;100.00
57232;BME280;43488;46.934;8.276;2023-06-22T03:09:04;96405.53;;;19.90;100.00
57232;BME280;43488;46.934;8.276;2023-06-22T03:11:33;96409.00;;;19.91;100.00
57232;BME280;43488;46.934;8.276;2023-06-22T03:14:01;96404.75;;;19.89;100.00
57232;BME280;43488;46.934;8.276;2023-06-22T03:16:29;96407.69;;;19.88;100.00
57232;BME280;43488;46.934;8.276;2023-06-22T03:18:56;96404.22;;;19.87;100.00
57232;BME280;43488;46.934;8.276;2023-06-22T03:21:23;96411.16;;;19.78;100.00
57232;BME280;43488;46.934;8.276;2023-06-22T03:23:51;96400.22;;;19.80;100.00
57232;BME280;43488;46.934;8.276;2023-06-22T03:26:18;96402.88;;;19.80;100.00
57232;BME280;43488;46.934;8.276;2023-06-22T03:28:46;96398.06;;;19.82;100.00
57232;BME280;43488;46.934;8.276;2023-06-22T03:31:13;96402.09;;;19.84;100.00
57232;BME280;43488;46.934;8.276;2023-06-22T03:33:41;96398.06;;;19.87;100.00
57232;BME280;43488;46.934;8.276;2023-06-22T03:36:08;96384.97;;;19.91;100.00
57232;BME280;43488;46.934;8.276;2023-06-22T03:38:35;96389.78;;;19.94;100.00
57232;BME280;43488;46.934;8.276;2023-06-22T03:41:03;96393.25;;;19.94;100.00
57232;BME280;43488;46.934;8.276;2023-06-22T03:43:30;96388.47;;;19.86;100.00
57232;BME280;43488;46.934;8.276;2023-06-22T03:45:57;96386.84;;;19.85;100.00
57232;BME280;43488;46.934;8.276;2023-06-22T03:48:24;96378.03;;;19.89;100.00
57232;BME280;43488;46.934;8.276;2023-06-22T03:50:53;96363.88;;;19.94;100.00
57232;BME280;43488;46.934;8.276;2023-06-22T03:53:20;96369.47;;;19.93;100.00
57232;BME280;43488;46.934;8.276;2023-06-22T03:55:52;96366.00;;;19.97;100.00
57232;BME280;43488;46.934;8.276;2023-06-22T03:58:20;96357.72;;;19.94;100.00
57232;BME280;43488;46.934;8.276;2023-06-22T04:00:51;96359.84;;;19.97;100.00
57232;BME280;43488;46.934;8.276;2023-06-22T04:03:21;96360.63;;;20.02;100.00
57232;BME280;43488;46.934;8.276;2023-06-22T04:05:49;96363.56;;;20.06;100.00
57232;BME280;43488;46.934;8.276;2023-06-22T04:08:17;96358.50;;;20.04;100.00
57232;BME280;43488;46.934;8.276;2023-06-22T04:10:45;96364.66;;;20.00;100.00
57232;BME280;43488;46.934;8.276;2023-06-22T04:13:12;96362.53;;;19.97;100.00
57232;BME280;43488;46.934;8.276;2023-06-22T04:15:39;96360.13;;;19.95;100.00
57232;BME280;43488;46.934;8.276;2023-06-22T04:18:06;96362.53;;;19.86;100.00
57232;BME280;43488;46.934;8.276;2023-06-22T04:20:34;96358.25;;;19.96;100.00
57232;BME280;43488;46.934;8.276;2023-06-22T04:23:01;96349.19;;;19.71;100.00
57232;BME280;43488;46.934;8.276;2023-06-22T04:25:29;96365.22;;;19.81;100.00
57232;BME280;43488;46.934;8.276;2023-06-22T04:27:56;96364.94;;;19.88;100.00
57232;BME280;43488;46.934;8.276;2023-06-22T04:30:23;96345.97;;;19.89;100.00
57232;BME280;43488;46.934;8.276;2023-06-22T04:32:50;96353.97;;;19.89;100.00
57232;BME280;43488;46.934;8.276;2023-06-22T04:35:24;96367.06;;;19.96;100.00
57232;BME280;43488;46.934;8.276;2023-06-22T04:37:53;96362.78;;;20.00;100.00
57232;BME280;43488;46.934;8.276;2023-06-22T04:40:23;96359.31;;;20.05;100.00
57232;BME280;43488;46.934;8.276;2023-06-22T04:42:50;96354.25;;;20.03;100.00
57232;BME280;43488;46.934;8.276;2023-06-22T04:45:21;96358.75;;;20.08;100.00
57232;BME280;43488;46.934;8.276;2023-06-22T04:47:48;96360.34;;;20.09;100.00
57232;BME280;43488;46.934;8.276;2023-06-22T04:50:16;96361.66;;;20.11;100.00
57232;BME280;43488;46.934;8.276;2023-06-22T04:52:44;96361.94;;;20.15;100.00
57232;BME280;43488;46.934;8.276;2023-06-22T04:55:13;96357.94;;;20.23;100.00
57232;BME280;43488;46.934;8.276;2023-06-22T04:57:46;96353.66;;;20.22;100.00
57232;BME280;43488;46.934;8.276;2023-06-22T05:00:20;96351.78;;;20.22;100.00
57232;BME280;43488;46.934;8.276;2023-06-22T05:02:50;96362.97;;;20.34;100.00
57232;BME280;43488;46.934;8.276;2023-06-22T05:05:17;96368.06;;;20.31;100.00
57232;BME280;43488;46.934;8.276;2023-06-22T05:07:46;96369.91;;;20.35;100.00
57232;BME280;43488;46.934;8.276;2023-06-22T05:10:15;96344.75;;;20.36;100.00
57232;BME280;43488;46.934;8.276;2023-06-22T05:12:43;96346.63;;;20.46;100.00
57232;BME280;43488;46.934;8.276;2023-06-22T05:15:10;96350.66;;;20.49;100.00
57232;BME280;43488;46.934;8.276;2023-06-22T05:17:38;96356.78;;;20.49;100.00
57232;BME280;43488;46.934;8.276;2023-06-22T05:20:25;96368.53;;;20.48;100.00
57232;BME280;43488;46.934;8.276;2023-06-22T05:22:52;96367.22;;;20.51;100.00
57232;BME280;43488;46.934;8.276;2023-06-22T05:25:19;96363.47;;;20.52;100.00
57232;BME280;43488;46.934;8.276;2023-06-22T05:27:47;96360.22;;;20.55;100.00
57232;BME280;43488;46.934;8.276;2023-06-22T05:30:15;96366.09;;;20.62;100.00
57232;BME280;43488;46.934;8.276;2023-06-22T05:32:43;96370.09;;;20.64;100.00
57232;BME280;43488;46.934;8.276;2023-06-22T05:35:11;96356.94;;;20.73;100.00
57232;BME280;43488;46.934;8.276;2023-06-22T05:37:38;96352.63;;;20.82;100.00
57232;BME280;43488;46.934;8.276;2023-06-22T05:40:06;96357.38;;;20.95;100.00
57232;BME280;43488;46.934;8.276;2023-06-22T05:42:35;96349.28;;;21.06;100.00
57232;BME280;43488;46.934;8.276;2023-06-22T05:45:02;96358.59;;;21.13;100.00
57232;BME280;43488;46.934;8.276;2023-06-22T05:47:29;96357.53;;;21.09;100.00
57232;BME280;43488;46.934;8.276;2023-06-22T05:49:57;96358.84;;;21.17;100.00
57232;BME280;43488;46.934;8.276;2023-06-22T05:52:25;96358.28;;;21.20;99.44
57232;BME280;43488;46.934;8.276;2023-06-22T05:54:52;96373.00;;;21.22;98.27
57232;BME280;43488;46.934;8.276;2023-06-22T05:57:19;96384.75;;;21.26;98.40
57232;BME280;43488;46.934;8.276;2023-06-22T05:59:48;96378.31;;;21.27;97.62
57232;BME280;43488;46.934;8.276;2023-06-22T06:02:15;96380.47;;;21.31;96.89
57232;BME280;43488;46.934;8.276;2023-06-22T06:04:43;96387.41;;;21.32;98.62
57232;BME280;43488;46.934;8.276;2023-06-22T06:07:10;96389.81;;;21.33;98.68
57232;BME280;43488;46.934;8.276;2023-06-22T06:09:38;96394.03;;;21.39;98.79
57232;BME280;43488;46.934;8.276;2023-06-22T06:12:05;96399.88;;;21.46;99.27
57232;BME280;43488;46.934;8.276;2023-06-22T06:14:33;96409.22;;;21.54;100.00
57232;BME280;43488;46.934;8.276;2023-06-22T06:17:00;96394.94;;;21.64;100.00
57232;BME280;43488;46.934;8.276;2023-06-22T06:19:27;96406.63;;;21.78;96.75
57232;BME280;43488;46.934;8.276;2023-06-22T06:21:54;96401.97;;;21.89;96.59
57232;BME280;43488;46.934;8.276;2023-06-22T06:24:22;96404.53;;;22.04;95.69
57232;BME280;43488;46.934;8.276;2023-06-22T06:26:49;96410.03;;;22.18;97.64
57232;BME280;43488;46.934;8.276;2023-06-22T06:29:16;96412.28;;;22.34;96.13
57232;BME280;43488;46.934;8.276;2023-06-22T06:31:44;96407.03;;;22.48;95.00
57232;BME280;43488;46.934;8.276;2023-06-22T06:34:11;96411.13;;;22.64;91.53
57232;BME280;43488;46.934;8.276;2023-06-22T06:36:38;96412.91;;;22.74;92.06
57232;BME280;43488;46.934;8.276;2023-06-22T06:39:06;96416.53;;;22.83;91.45
57232;BME280;43488;46.934;8.276;2023-06-22T06:41:33;96408.19;;;22.90;89.57
57232;BME280;43488;46.934;8.276;2023-06-22T06:44:01;96413.25;;;22.91;89.32
57232;BME280;43488;46.934;8.276;2023-06-22T06:46:28;96428.78;;;22.94;89.06
57232;BME280;43488;46.934;8.276;2023-06-22T06:48:55;96427.84;;;23.04;89.09
57232;BME280;43488;46.934;8.276;2023-06-22T06:51:23;96421.63;;;23.09;88.79
57232;BME280;43488;46.934;8.276;2023-06-22T06:53:50;96448.25;;;23.05;87.62
57232;BME280;43488;46.934;8.276;2023-06-22T06:56:18;96444.41;;;23.11;87.99
57232;BME280;43488;46.934;8.276;2023-06-22T06:58:45;96455.38;;;23.15;87.27
57232;BME280;43488;46.934;8.276;2023-06-22T07:01:13;96449.13;;;23.19;87.00
57232;BME280;43488;46.934;8.276;2023-06-22T07:03:40;96463.34;;;23.20;88.22
57232;BME280;43488;46.934;8.276;2023-06-22T07:06:09;96474.03;;;23.25;89.50
57232;BME280;43488;46.934;8.276;2023-06-22T07:08:36;96481.31;;;23.24;88.89
57232;BME280;43488;46.934;8.276;2023-06-22T07:11:04;96497.16;;;23.21;89.77
57232;BME280;43488;46.934;8.276;2023-06-22T07:13:31;96514.09;;;23.21;89.46
57232;BME280;43488;46.934;8.276;2023-06-22T07:15:58;96525.72;;;23.36;89.34
57232;BME280;43488;46.934;8.276;2023-06-22T07:18:26;96539.94;;;23.17;92.75
57232;BME280;43488;46.934;8.276;2023-06-22T07:20:54;96560.53;;;23.22;92.18
57232;BME280;43488;46.934;8.276;2023-06-22T07:23:21;96573.88;;;23.32;90.35
57232;BME280;43488;46.934;8.276;2023-06-22T07:25:48;96581.50;;;23.44;87.83
57232;BME280;43488;46.934;8.276;2023-06-22T07:28:16;96573.63;;;23.52;86.65
57232;BME280;43488;46.934;8.276;2023-06-22T07:30:44;96560.56;;;23.65;86.35
57232;BME280;43488;46.934;8.276;2023-06-22T07:33:12;96575.41;;;23.62;87.36
57232;BME280;43488;46.934;8.276;2023-06-22T07:35:39;96565.25;;;23.54;88.29
57232;BME280;43488;46.934;8.276;2023-06-22T07:38:07;96569.53;;;23.55;88.76
57232;BME280;43488;46.934;8.276;2023-06-22T07:40:34;96567.78;;;23.69;88.62
57232;BME280;43488;46.934;8.276;2023-06-22T07:43:02;96568.44;;;23.61;89.74
57232;BME280;43488;46.934;8.276;2023-06-22T07:45:30;96568.00;;;23.73;89.80
57232;BME280;43488;46.934;8.276;2023-06-22T07:48:01;96565.81;;;23.94;88.40
57232;BME280;43488;46.934;8.276;2023-06-22T07:50:28;96559.06;;;23.96;88.51
57232;BME280;43488;46.934;8.276;2023-06-22T07:52:55;96555.78;;;23.99;88.67
57232;BME280;43488;46.934;8.276;2023-06-22T07:55:22;96546.97;;;24.12;85.34
57232;BME280;43488;46.934;8.276;2023-06-22T07:57:49;96554.53;;;24.10;85.66
57232;BME280;43488;46.934;8.276;2023-06-22T08:00:19;96548.50;;;24.19;84.78
57232;BME280;43488;46.934;8.276;2023-06-22T08:02:47;96533.47;;;24.18;84.33
57232;BME280;43488;46.934;8.276;2023-06-22T08:05:15;96533.00;;;24.29;84.64
57232;BME280;43488;46.934;8.276;2023-06-22T08:07:42;96529.59;;;24.43;84.46
57232;BME280;43488;46.934;8.276;2023-06-22T08:10:12;96529.13;;;24.54;85.17
57232;BME280;43488;46.934;8.276;2023-06-22T08:12:41;96541.47;;;24.55;86.11
57232;BME280;43488;46.934;8.276;2023-06-22T08:15:19;96530.53;;;24.65;83.75
57232;BME280;43488;46.934;8.276;2023-06-22T08:17:46;96514.91;;;24.81;83.32
57232;BME280;43488;46.934;8.276;2023-06-22T08:20:14;96507.13;;;24.80;83.25
57232;BME280;43488;46.934;8.276;2023-06-22T08:22:42;96490.25;;;24.74;82.57
57232;BME280;43488;46.934;8.276;2023-06-22T08:25:11;96493.38;;;24.81;82.90
57232;BME280;43488;46.934;8.276;2023-06-22T08:27:38;96479.09;;;24.94;83.57
57232;BME280;43488;46.934;8.276;2023-06-22T08:30:07;96480.41;;;24.83;83.29
57232;BME280;43488;46.934;8.276;2023-06-22T08:32:34;96475.41;;;24.77;81.97
57232;BME280;43488;46.934;8.276;2023-06-22T08:35:02;96472.13;;;24.80;83.17
57232;BME280;43488;46.934;8.276;2023-06-22T08:37:29;96471.72;;;24.86;82.21
57232;BME280;43488;46.934;8.276;2023-06-22T08:40:05;96469.34;;;24.99;82.81
57232;BME280;43488;46.934;8.276;2023-06-22T08:42:33;96460.28;;;25.08;82.31
57232;BME280;43488;46.934;8.276;2023-06-22T08:45:00;96466.06;;;25.15;80.06
57232;BME280;43488;46.934;8.276;2023-06-22T08:47:28;96467.44;;;25.13;79.31
57232;BME280;43488;46.934;8.276;2023-06-22T08:49:55;96469.03;;;25.14;79.30
57232;BME280;43488;46.934;8.276;2023-06-22T08:52:23;96465.53;;;25.27;78.51
57232;BME280;43488;46.934;8.276;2023-06-22T08:54:51;96471.09;;;25.44;79.22
57232;BME280;43488;46.934;8.276;2023-06-22T08:57:20;96462.47;;;25.56;77.98
57232;BME280;43488;46.934;8.276;2023-06-22T08:59:47;96461.22;;;25.76;78.33
57232;BME280;43488;46.934;8.276;2023-06-22T09:02:14;96462.91;;;25.86;78.20
57232;BME280;43488;46.934;8.276;2023-06-22T09:04:42;96465.72;;;26.03;76.57
57232;BME280;43488;46.934;8.276;2023-06-22T09:07:09;96458.72;;;26.02;75.46
57232;BME280;43488;46.934;8.276;2023-06-22T09:09:37;96453.34;;;26.02;73.51
57232;BME280;43488;46.934;8.276;2023-06-22T09:12:05;96454.88;;;26.17;72.98
57232;BME280;43488;46.934;8.276;2023-06-22T09:14:33;96435.78;;;26.13;72.51
57232;BME280;43488;46.934;8.276;2023-06-22T09:17:00;96440.88;;;26.15;72.66
57232;BME280;43488;46.934;8.276;2023-06-22T09:19:27;96440.06;;;26.14;72.51
57232;BME280;43488;46.934;8.276;2023-06-22T09:21:54;96437.53;;;26.09;72.31
57232;BME280;43488;46.934;8.276;2023-06-22T09:24:22;96426.91;;;26.13;73.38
57232;BME280;43488;46.934;8.276;2023-06-22T09:26:49;96428.84;;;26.21;72.34
57232;BME280;43488;46.934;8.276;2023-06-22T09:29:17;96423.66;;;26.33;72.27
57232;BME280;43488;46.934;8.276;2023-06-22T09:31:44;96418.78;;;26.35;72.26
57232;BME280;43488;46.934;8.276;2023-06-22T09:34:12;96410.56;;;26.40;72.13
57232;BME280;43488;46.934;8.276;2023-06-22T09:36:41;96393.09;;;26.38;71.20
57232;BME280;43488;46.934;8.276;2023-06-22T09:39:08;96393.16;;;26.24;72.39
57232;BME280;43488;46.934;8.276;2023-06-22T09:41:35;96387.19;;;26.35;72.05
57232;BME280;43488;46.934;8.276;2023-06-22T09:44:02;96381.59;;;26.32;71.93
57232;BME280;43488;46.934;8.276;2023-06-22T09:46:30;96388.59;;;26.33;71.22
57232;BME280;43488;46.934;8.276;2023-06-22T09:48:57;96378.59;;;26.25;72.32
57232;BME280;43488;46.934;8.276;2023-06-22T09:51:24;96366.84;;;26.29;73.84
57232;BME280;43488;46.934;8.276;2023-06-22T09:53:52;96369.53;;;26.29;74.33
57232;BME280;43488;46.934;8.276;2023-06-22T09:56:24;96367.06;;;26.42;73.23
57232;BME280;43488;46.934;8.276;2023-06-22T09:58:54;96366.16;;;26.46;74.91
57232;BME280;43488;46.934;8.276;2023-06-22T10:01:21;96363.81;;;26.53;75.33
57232;BME280;43488;46.934;8.276;2023-06-22T10:03:49;96374.91;;;26.60;74.91
57232;BME280;43488;46.934;8.276;2023-06-22T10:06:17;96372.22;;;26.60;73.94
57232;BME280;43488;46.934;8.276;2023-06-22T10:08:44;96366.25;;;26.81;74.17
57232;BME280;43488;46.934;8.276;2023-06-22T10:11:11;96361.03;;;27.02;70.51
57232;BME280;43488;46.934;8.276;2023-06-22T10:13:39;96359.31;;;27.14;71.76
57232;BME280;43488;46.934;8.276;2023-06-22T10:16:06;96361.09;;;27.28;69.03
57232;BME280;43488;46.934;8.276;2023-06-22T10:18:34;96359.81;;;27.25;69.60
57232;BME280;43488;46.934;8.276;2023-06-22T10:21:02;96353.47;;;27.30;67.97
57232;BME280;43488;46.934;8.276;2023-06-22T10:23:29;96351.41;;;27.27;65.78
57232;BME280;43488;46.934;8.276;2023-06-22T10:25:57;96345.19;;;27.26;64.89
57232;BME280;43488;46.934;8.276;2023-06-22T10:28:25;96351.22;;;27.32;64.92
57232;BME280;43488;46.934;8.276;2023-06-22T10:30:52;96346.59;;;27.41;65.35
57232;BME280;43488;46.934;8.276;2023-06-22T10:33:19;96352.19;;;27.36;64.41
57232;BME280;43488;46.934;8.276;2023-06-22T10:35:47;96350.44;;;27.40;64.34
57232;BME280;43488;46.934;8.276;2023-06-22T10:38:14;96364.25;;;27.38;64.58
57232;BME280;43488;46.934;8.276;2023-06-22T10:40:41;96350.59;;;27.35;65.23
57232;BME280;43488;46.934;8.276;2023-06-22T10:43:09;96356.16;;;27.30;65.08
57232;BME280;43488;46.934;8.276;2023-06-22T10:45:36;96353.31;;;27.26;64.48
57232;BME280;43488;46.934;8.276;2023-06-22T10:48:04;96357.91;;;27.34;64.31
57232;BME280;43488;46.934;8.276;2023-06-22T10:50:31;96349.97;;;27.38;63.93
57232;BME280;43488;46.934;8.276;2023-06-22T10:52:58;96359.19;;;27.45;64.87
57232;BME280;43488;46.934;8.276;2023-06-22T10:55:26;96366.66;;;27.48;63.45
57232;BME280;43488;46.934;8.276;2023-06-22T10:57:53;96363.78;;;27.54;62.52
57232;BME280;43488;46.934;8.276;2023-06-22T11:00:20;96369.66;;;27.56;62.51
57232;BME280;43488;46.934;8.276;2023-06-22T11:02:48;96374.91;;;27.52;61.36
57232;BME280;43488;46.934;8.276;2023-06-22T11:05:15;96372.69;;;27.54;61.65
57232;BME280;43488;46.934;8.276;2023-06-22T11:07:45;96374.44;;;27.59;61.04
57232;BME280;43488;46.934;8.276;2023-06-22T11:10:13;96379.53;;;27.69;60.39
57232;BME280;43488;46.934;8.276;2023-06-22T11:12:40;96368.25;;;27.75;60.52
57232;BME280;43488;46.934;8.276;2023-06-22T11:15:09;96366.78;;;27.78;60.39
57232;BME280;43488;46.934;8.276;2023-06-22T11:17:37;96366.31;;;27.85;60.25
57232;BME280;43488;46.934;8.276;2023-06-22T11:20:06;96370.94;;;27.84;60.42
57232;BME280;43488;46.934;8.276;2023-06-22T11:22:40;96383.19;;;27.90;59.65
57232;BME280;43488;46.934;8.276;2023-06-22T11:25:08;96384.44;;;27.93;59.55
57232;BME280;43488;46.934;8.276;2023-06-22T11:27:36;96387.72;;;28.07;59.90
57232;BME280;43488;46.934;8.276;2023-06-22T11:30:07;96390.75;;;28.14;61.91
57232;BME280;43488;46.934;8.276;2023-06-22T11:32:35;96389.47;;;28.20;62.43
57232;BME280;43488;46.934;8.276;2023-06-22T11:35:03;96383.38;;;28.23;62.64
57232;BME280;43488;46.934;8.276;2023-06-22T11:37:30;96379.91;;;28.14;60.16
57232;BME280;43488;46.934;8.276;2023-06-22T11:39:58;96388.38;;;28.13;59.72
57232;BME280;43488;46.934;8.276;2023-06-22T11:42:26;96392.16;;;28.20;59.38
57232;BME280;43488;46.934;8.276;2023-06-22T11:44:57;96395.50;;;28.26;59.40
57232;BME280;43488;46.934;8.276;2023-06-22T11:47:25;96397.22;;;28.39;60.15
57232;BME280;43488;46.934;8.276;2023-06-22T11:49:52;96396.25;;;28.44;59.31
57232;BME280;43488;46.934;8.276;2023-06-22T11:52:21;96384.00;;;28.76;62.45
57232;BME280;43488;46.934;8.276;2023-06-22T11:54:48;96379.38;;;28.76;66.17
57232;BME280;43488;46.934;8.276;2023-06-22T11:57:16;96381.47;;;28.71;61.69
57232;BME280;43488;46.934;8.276;2023-06-22T11:59:43;96373.09;;;28.64;61.25
57232;BME280;43488;46.934;8.276;2023-06-22T12:02:10;96365.88;;;28.68;61.16
57232;BME280;43488;46.934;8.276;2023-06-22T12:04:37;96373.38;;;28.62;61.85
57232;BME280;43488;46.934;8.276;2023-06-22T12:07:05;96374.00;;;28.68;62.60
57232;BME280;43488;46.934;8.276;2023-06-22T12:09:32;96379.75;;;28.66;63.14
57232;BME280;43488;46.934;8.276;2023-06-22T12:12:01;96388.75;;;28.79;62.50
57232;BME280;43488;46.934;8.276;2023-06-22T12:14:28;96382.53;;;28.78;63.04
57232;BME280;43488;46.934;8.276;2023-06-22T12:16:56;96386.19;;;28.91;61.64
57232;BME280;43488;46.934;8.276;2023-06-22T12:19:23;96381.38;;;28.88;60.63
57232;BME280;43488;46.934;8.276;2023-06-22T12:21:51;96375.50;;;28.86;60.15
57232;BME280;43488;46.934;8.276;2023-06-22T12:24:18;96375.09;;;28.75;61.13
57232;BME280;43488;46.934;8.276;2023-06-22T12:26:46;96370.78;;;28.74;61.25
57232;BME280;43488;46.934;8.276;2023-06-22T12:29:13;96365.31;;;28.53;61.52
57232;BME280;43488;46.934;8.276;2023-06-22T12:31:40;96359.50;;;28.72;61.36
57232;BME280;43488;46.934;8.276;2023-06-22T12:34:11;96342.06;;;28.82;60.73
57232;BME280;43488;46.934;8.276;2023-06-22T12:36:38;96341.66;;;29.01;59.67
57232;BME280;43488;46.934;8.276;2023-06-22T12:39:06;96326.56;;;29.12;61.40
57232;BME280;43488;46.934;8.276;2023-06-22T12:41:33;96322.16;;;29.28;61.58
57232;BME280;43488;46.934;8.276;2023-06-22T12:44:00;96331.38;;;29.48;60.95
57232;BME280;43488;46.934;8.276;2023-06-22T12:46:27;96339.72;;;29.64;60.88
57232;BME280;43488;46.934;8.276;2023-06-22T12:48:55;96340.63;;;29.68;61.91
57232;BME280;43488;46.934;8.276;2023-06-22T12:51:22;96331.88;;;29.50;62.03
57232;BME280;43488;46.934;8.276;2023-06-22T12:53:50;96340.00;;;29.29;63.23
57232;BME280;43488;46.934;8.276;2023-06-22T12:56:21;96330.47;;;29.23;63.16
57232;BME280;43488;46.934;8.276;2023-06-22T12:58:48;96336.84;;;29.27;63.95
57232;BME280;43488;46.934;8.276;2023-06-22T13:01:15;96351.44;;;29.14;62.11
57232;BME280;43488;46.934;8.276;2023-06-22T13:03:45;96358.66;;;29.10;63.53
57232;BME280;43488;46.934;8.276;2023-06-22T13:06:12;96355.63;;;28.82;63.33
57232;BME280;43488;46.934;8.276;2023-06-22T13:08:39;96360.88;;;28.49;63.51